createdAt,value
2023-05-05T00:00:15.937Z,6.40
2023-05-05T00:03:03.598Z,6.40
2023-05-05T00:05:52.266Z,6.30
2023-05-05T00:08:41.595Z,6.30
2023-05-05T00:11:29.190Z,6.20
2023-05-05T00:14:16.919Z,6.20
2023-05-05T00:17:05.339Z,6.20
2023-05-05T00:19:53.346Z,6.20
2023-05-05T00:22:40.919Z,6.20
2023-05-05T00:25:30.015Z,6.20
2023-05-05T00:28:17.621Z,6.20
2023-05-05T00:31:05.043Z,6.20
2023-05-05T00:33:52.397Z,6.20
2023-05-05T00:36:40.127Z,6.20
2023-05-05T00:39:27.859Z,6.20
2023-05-05T00:42:16.873Z,6.20
2023-05-05T00:45:05.090Z,6.20
2023-05-05T00:47:55.066Z,6.20
2023-05-05T00:50:44.974Z,6.20
2023-05-05T00:53:32.955Z,6.20
2023-05-05T00:56:22.206Z,6.20
2023-05-05T00:59:10.909Z,6.20
2023-05-05T01:01:59.536Z,6.10
2023-05-05T01:04:47.190Z,6.20
2023-05-05T01:07:45.676Z,6.20
2023-05-05T01:10:41.037Z,6.20
2023-05-05T01:13:37.337Z,6.30
2023-05-05T01:16:30.185Z,6.30
2023-05-05T01:19:39.591Z,6.40
2023-05-05T01:22:35.134Z,6.40
2023-05-05T01:25:37.555Z,6.40
2023-05-05T01:28:51.018Z,6.50
2023-05-05T01:31:51.858Z,6.50
2023-05-05T01:34:44.969Z,6.60
2023-05-05T01:37:39.199Z,6.60
2023-05-05T01:40:31.385Z,6.60
2023-05-05T01:43:24.163Z,6.60
2023-05-05T01:46:13.329Z,6.60
2023-05-05T01:49:05.028Z,6.60
2023-05-05T01:51:53.779Z,6.60
2023-05-05T01:54:42.257Z,6.60
2023-05-05T01:57:32.171Z,6.60
2023-05-05T02:00:21.191Z,6.60
2023-05-05T02:03:11.148Z,6.50
2023-05-05T02:06:02.437Z,6.50
2023-05-05T02:08:52.988Z,6.50
2023-05-05T02:11:42.137Z,6.50
2023-05-05T02:14:31.599Z,6.40
2023-05-05T02:17:21.338Z,6.40
2023-05-05T02:20:12.933Z,6.40
2023-05-05T02:23:01.728Z,6.30
2023-05-05T02:25:53.080Z,6.30
2023-05-05T02:28:43.949Z,6.20
2023-05-05T02:31:33.964Z,6.20
2023-05-05T02:34:26.612Z,6.20
2023-05-05T02:37:20.351Z,6.10
2023-05-05T02:40:12.358Z,6.10
2023-05-05T02:43:04.111Z,6.20
2023-05-05T02:45:51.686Z,6.20
2023-05-05T02:48:40.117Z,6.20
2023-05-05T02:51:27.779Z,6.30
2023-05-05T02:54:17.174Z,6.30
2023-05-05T02:57:06.278Z,6.20
2023-05-05T03:00:09.599Z,6.20
2023-05-05T03:03:09.362Z,6.20
2023-05-05T03:06:03.743Z,6.20
2023-05-05T03:08:57.419Z,6.10
2023-05-05T03:11:51.368Z,6.10
2023-05-05T03:14:44.280Z,6.00
2023-05-05T03:17:36.783Z,6.10
2023-05-05T03:20:25.951Z,6.10
2023-05-05T03:23:14.684Z,6.10
2023-05-05T03:26:04.740Z,6.20
2023-05-05T03:28:55.625Z,6.20
2023-05-05T03:31:52.205Z,6.20
2023-05-05T03:34:40.006Z,6.20
2023-05-05T03:37:27.781Z,6.20
2023-05-05T03:40:15.480Z,6.20
2023-05-05T03:43:03.492Z,6.20
2023-05-05T03:45:52.559Z,6.20
2023-05-05T03:48:42.044Z,6.30
2023-05-05T03:51:29.733Z,6.30
2023-05-05T03:54:18.585Z,6.30
2023-05-05T03:57:06.419Z,6.40
2023-05-05T03:59:54.271Z,6.40
2023-05-05T04:02:42.097Z,6.40
2023-05-05T04:05:32.538Z,6.50
2023-05-05T04:08:20.290Z,6.60
2023-05-05T04:11:08.029Z,6.60
2023-05-05T04:13:56.898Z,6.70
2023-05-05T04:16:44.896Z,6.70
2023-05-05T04:19:33.991Z,6.70
2023-05-05T04:22:25.402Z,6.80
2023-05-05T04:25:13.166Z,6.80
2023-05-05T04:28:01.043Z,6.90
2023-05-05T04:30:48.948Z,6.90
2023-05-05T04:33:36.611Z,6.90
2023-05-05T04:36:24.977Z,6.90
2023-05-05T04:39:14.062Z,7.00
2023-05-05T04:42:02.319Z,7.00
2023-05-05T04:44:50.432Z,7.00
2023-05-05T04:47:39.191Z,7.10
2023-05-05T04:50:27.092Z,7.10
2023-05-05T04:53:14.538Z,7.20
2023-05-05T04:56:03.765Z,7.40
2023-05-05T04:58:51.745Z,7.60
2023-05-05T05:01:39.693Z,7.90
2023-05-05T05:04:27.438Z,8.10
2023-05-05T05:07:15.559Z,8.40
2023-05-05T05:10:03.266Z,8.70
2023-05-05T05:12:52.076Z,9.00
2023-05-05T05:15:39.386Z,9.30
2023-05-05T05:18:26.993Z,9.60
2023-05-05T05:21:15.132Z,9.80
2023-05-05T05:24:02.760Z,10.10
2023-05-05T05:26:50.153Z,10.20
2023-05-05T05:29:38.909Z,10.40
2023-05-05T05:32:27.041Z,10.60
2023-05-05T05:35:14.717Z,10.80
2023-05-05T05:38:02.534Z,11.00
2023-05-05T05:40:50.734Z,11.20
2023-05-05T05:43:38.916Z,11.50
2023-05-05T05:46:28.529Z,11.70
2023-05-05T05:49:16.364Z,12.00
2023-05-05T05:52:03.760Z,12.20
2023-05-05T05:54:51.856Z,12.50
2023-05-05T05:57:39.302Z,12.70
2023-05-05T06:00:28.558Z,12.80
2023-05-05T06:03:24.753Z,12.90
2023-05-05T06:06:12.825Z,13.00
2023-05-05T06:09:00.308Z,13.00
2023-05-05T06:11:49.472Z,13.00
2023-05-05T06:14:37.312Z,13.10
2023-05-05T06:17:25.074Z,13.20
2023-05-05T06:20:15.172Z,13.30
2023-05-05T06:23:02.710Z,13.40
2023-05-05T06:25:54.654Z,13.60
2023-05-05T06:28:42.720Z,13.80
2023-05-05T06:31:30.605Z,14.00
2023-05-05T06:34:18.349Z,14.20
2023-05-05T06:37:07.524Z,14.40
2023-05-05T06:39:54.952Z,14.60
2023-05-05T06:42:42.592Z,14.80
2023-05-05T06:45:35.926Z,15.00
2023-05-05T06:48:23.345Z,15.10
2023-05-05T06:51:10.930Z,15.10
2023-05-05T06:54:00.410Z,15.10
2023-05-05T06:56:47.984Z,15.30
2023-05-05T06:59:35.341Z,15.40
2023-05-05T07:02:24.791Z,15.60
2023-05-05T07:05:14.118Z,15.70
2023-05-05T07:08:01.964Z,15.90
2023-05-05T07:10:50.700Z,16.00
2023-05-05T07:13:38.288Z,16.10
2023-05-05T07:16:27.083Z,16.30
2023-05-05T07:19:14.773Z,16.40
2023-05-05T07:22:02.278Z,16.50
2023-05-05T07:24:49.888Z,16.70
2023-05-05T07:27:40.795Z,16.80
2023-05-05T07:30:28.560Z,17.10
2023-05-05T07:33:16.274Z,17.30
2023-05-05T07:36:05.399Z,17.60
2023-05-05T07:38:53.037Z,17.80
2023-05-05T07:41:40.686Z,18.10
2023-05-05T07:44:29.767Z,18.20
2023-05-05T07:47:17.458Z,18.20
2023-05-05T07:50:05.173Z,18.30
2023-05-05T07:52:59.376Z,18.40
2023-05-05T07:55:58.268Z,18.50
2023-05-05T07:58:46.815Z,18.80
2023-05-05T08:01:35.660Z,19.00
2023-05-05T08:04:23.479Z,19.30
2023-05-05T08:07:11.608Z,19.60
2023-05-05T08:09:59.429Z,19.80
2023-05-05T08:12:47.123Z,19.90
2023-05-05T08:15:34.682Z,19.90
2023-05-05T08:18:25.130Z,20.00
2023-05-05T08:21:13.160Z,20.10
2023-05-05T08:24:00.829Z,20.40
2023-05-05T08:26:48.410Z,20.50
2023-05-05T08:29:36.083Z,20.60
2023-05-05T08:32:23.619Z,20.70
2023-05-05T08:35:12.996Z,20.90
2023-05-05T08:38:00.538Z,21.10
2023-05-05T08:40:48.276Z,21.10
2023-05-05T08:43:36.626Z,21.30
2023-05-05T08:46:28.172Z,21.40
2023-05-05T08:49:18.945Z,21.60
2023-05-05T08:52:12.213Z,21.80
2023-05-05T08:55:07.599Z,21.90
2023-05-05T08:57:57.386Z,21.90
2023-05-05T09:00:46.585Z,21.90
2023-05-05T09:03:36.796Z,22.10
2023-05-05T09:06:26.905Z,22.30
2023-05-05T09:09:16.164Z,22.50
2023-05-05T09:12:04.274Z,22.60
2023-05-05T09:14:52.046Z,22.50
2023-05-05T09:17:40.101Z,22.70
2023-05-05T09:20:35.195Z,22.70
2023-05-05T09:23:22.928Z,22.60
2023-05-05T09:26:11.663Z,22.70
2023-05-05T09:28:59.173Z,22.90
2023-05-05T09:32:05.377Z,23.10
2023-05-05T09:35:00.209Z,23.40
2023-05-05T09:37:47.857Z,23.70
2023-05-05T09:40:46.842Z,23.90
2023-05-05T09:43:52.904Z,24.20
2023-05-05T09:46:51.146Z,24.20
2023-05-05T09:49:39.924Z,24.10
2023-05-05T09:52:27.590Z,24.00
2023-05-05T09:55:18.688Z,24.10
2023-05-05T09:58:19.726Z,24.30
2023-05-05T10:01:23.765Z,24.60
2023-05-05T10:04:24.354Z,24.80
2023-05-05T10:07:24.217Z,24.80
2023-05-05T10:10:13.402Z,24.90
2023-05-05T10:13:00.886Z,25.00
2023-05-05T10:15:50.764Z,25.20
2023-05-05T10:18:44.874Z,25.40
2023-05-05T10:21:38.007Z,25.60
2023-05-05T10:24:35.527Z,25.40
2023-05-05T10:27:24.376Z,25.20
2023-05-05T10:30:19.052Z,25.30
2023-05-05T10:33:31.113Z,25.50
2023-05-05T10:36:21.637Z,25.70
2023-05-05T10:39:10.967Z,25.90
2023-05-05T10:42:02.790Z,25.80
2023-05-05T10:44:50.920Z,25.90
2023-05-05T10:47:40.415Z,25.90
2023-05-05T10:50:34.485Z,25.90
2023-05-05T10:53:29.588Z,25.90
2023-05-05T10:56:26.987Z,26.00
2023-05-05T10:59:43.476Z,25.80
2023-05-05T11:02:31.883Z,26.00
2023-05-05T11:05:21.611Z,26.30
2023-05-05T11:08:28.220Z,26.40
2023-05-05T11:11:16.028Z,26.50
2023-05-05T11:14:22.389Z,26.70
2023-05-05T11:17:45.743Z,26.50
2023-05-05T11:21:07.826Z,26.30
2023-05-05T11:24:16.570Z,26.70
2023-05-05T11:27:04.700Z,27.00
2023-05-05T11:30:12.188Z,27.10
2023-05-05T11:33:24.673Z,26.80
2023-05-05T11:36:13.164Z,26.70
2023-05-05T11:39:10.438Z,26.80
2023-05-05T11:42:24.585Z,27.20
2023-05-05T11:45:23.133Z,27.20
2023-05-05T11:48:27.373Z,27.10
2023-05-05T11:51:15.366Z,27.10
2023-05-05T11:54:02.962Z,27.10
2023-05-05T11:56:53.247Z,27.10
2023-05-05T11:59:52.422Z,27.00
2023-05-05T12:02:40.132Z,27.00
2023-05-05T12:05:27.840Z,27.20
2023-05-05T12:08:15.864Z,27.40
2023-05-05T12:11:04.414Z,27.50
2023-05-05T12:14:08.697Z,27.40
2023-05-05T12:16:56.827Z,27.50
2023-05-05T12:19:51.757Z,27.60
2023-05-05T12:22:40.081Z,27.60
2023-05-05T12:25:35.729Z,27.70
2023-05-05T12:28:23.643Z,27.10
2023-05-05T12:31:12.948Z,26.90
2023-05-05T12:34:01.929Z,26.20
2023-05-05T12:36:49.556Z,25.80
2023-05-05T12:39:36.998Z,25.80
2023-05-05T12:42:24.901Z,26.20
2023-05-05T12:45:18.530Z,26.60
2023-05-05T12:48:25.330Z,27.00
2023-05-05T12:51:21.192Z,27.10
2023-05-05T12:54:09.947Z,26.70
2023-05-05T12:56:58.840Z,26.90
2023-05-05T12:59:46.678Z,27.10
2023-05-05T13:02:35.866Z,27.50
2023-05-05T13:05:36.295Z,28.00
2023-05-05T13:08:25.434Z,28.10
2023-05-05T13:11:13.322Z,28.10
2023-05-05T13:14:00.748Z,28.30
2023-05-05T13:16:48.558Z,28.40
2023-05-05T13:19:41.868Z,28.50
2023-05-05T13:22:30.804Z,28.50
2023-05-05T13:25:18.542Z,28.30
2023-05-05T13:28:06.071Z,28.30
2023-05-05T13:30:53.762Z,28.20
2023-05-05T13:33:41.515Z,28.10
2023-05-05T13:36:28.906Z,28.10
2023-05-05T13:39:17.692Z,27.90
2023-05-05T13:42:05.499Z,28.00
2023-05-05T13:44:53.452Z,27.90
2023-05-05T13:47:42.109Z,27.90
2023-05-05T13:50:29.558Z,28.00
2023-05-05T13:53:17.609Z,28.10
2023-05-05T13:56:07.131Z,28.20
2023-05-05T13:58:54.656Z,28.70
2023-05-05T14:01:42.549Z,29.00
2023-05-05T14:04:30.329Z,29.10
2023-05-05T14:07:18.282Z,28.90
2023-05-05T14:10:06.945Z,28.30
2023-05-05T14:12:56.215Z,27.90
2023-05-05T14:15:43.875Z,28.00
2023-05-05T14:18:31.892Z,28.20
2023-05-05T14:21:19.298Z,28.30
2023-05-05T14:24:07.254Z,28.20
2023-05-05T14:26:54.531Z,28.00
2023-05-05T14:29:43.395Z,27.90
2023-05-05T14:32:30.933Z,28.00
2023-05-05T14:35:18.423Z,28.10
2023-05-05T14:38:06.228Z,28.10
2023-05-05T14:40:54.313Z,28.30
2023-05-05T14:43:41.932Z,28.20
2023-05-05T14:46:31.745Z,27.80
2023-05-05T14:49:19.580Z,27.60
2023-05-05T14:52:07.102Z,27.60
2023-05-05T14:54:54.530Z,27.60
2023-05-05T14:57:42.277Z,27.50
2023-05-05T15:00:30.914Z,27.30
2023-05-05T15:03:19.934Z,27.30
2023-05-05T15:06:08.654Z,27.10
2023-05-05T15:08:56.038Z,27.30
2023-05-05T15:11:45.084Z,27.20
2023-05-05T15:14:32.630Z,27.20
2023-05-05T15:17:20.304Z,27.20
2023-05-05T15:20:10.314Z,27.50
2023-05-05T15:22:57.973Z,28.10
2023-05-05T15:25:45.775Z,28.50
2023-05-05T15:28:33.410Z,28.70
2023-05-05T15:31:21.240Z,28.50
2023-05-05T15:34:08.634Z,28.50
2023-05-05T15:36:57.386Z,28.50
2023-05-05T15:39:44.789Z,28.20
2023-05-05T15:42:33.857Z,27.50
2023-05-05T15:45:21.487Z,26.60
2023-05-05T15:48:08.839Z,25.90
2023-05-05T15:50:56.307Z,25.50
2023-05-05T15:53:45.506Z,25.50
2023-05-05T15:56:33.856Z,25.60
2023-05-05T15:59:21.321Z,26.10
2023-05-05T16:02:08.732Z,26.80
2023-05-05T16:04:56.243Z,27.40
2023-05-05T16:07:44.183Z,27.50
2023-05-05T16:10:32.995Z,26.90
2023-05-05T16:13:20.949Z,26.10
2023-05-05T16:16:08.735Z,25.20
2023-05-05T16:18:56.177Z,24.80
2023-05-05T16:21:43.581Z,25.00
2023-05-05T16:24:31.203Z,25.10
2023-05-05T16:27:20.309Z,25.20
2023-05-05T16:30:10.259Z,25.50
2023-05-05T16:32:57.967Z,25.70
2023-05-05T16:35:46.251Z,25.60
2023-05-05T16:38:33.768Z,25.20
2023-05-05T16:41:22.430Z,24.70
2023-05-05T16:44:11.407Z,24.30
2023-05-05T16:46:59.282Z,24.10
2023-05-05T16:49:46.881Z,24.10
2023-05-05T16:52:34.452Z,24.30
2023-05-05T16:55:22.094Z,24.50
2023-05-05T16:58:09.945Z,24.60
2023-05-05T17:01:01.936Z,24.50
2023-05-05T17:03:49.578Z,24.00
2023-05-05T17:06:36.873Z,23.40
2023-05-05T17:09:24.940Z,22.90
2023-05-05T17:12:12.411Z,22.50
2023-05-05T17:15:00.051Z,22.00
2023-05-05T17:17:49.263Z,21.60
2023-05-05T17:20:37.428Z,21.10
2023-05-05T17:23:24.861Z,20.70
2023-05-05T17:26:12.231Z,20.30
2023-05-05T17:28:59.679Z,19.90
2023-05-05T17:31:47.531Z,19.60
2023-05-05T17:34:36.499Z,19.30
2023-05-05T17:37:24.287Z,19.10
2023-05-05T17:40:12.263Z,18.90
2023-05-05T17:42:59.851Z,18.60
2023-05-05T17:45:47.517Z,18.40
2023-05-05T17:48:35.253Z,18.20
2023-05-05T17:51:24.584Z,18.00
2023-05-05T17:54:12.037Z,17.80
2023-05-05T17:56:59.910Z,17.50
2023-05-05T17:59:49.512Z,17.40
2023-05-05T18:02:37.864Z,17.20
2023-05-05T18:05:25.619Z,17.10
2023-05-05T18:08:14.592Z,16.90
2023-05-05T18:11:02.295Z,16.80
2023-05-05T18:13:49.968Z,16.60
2023-05-05T18:16:37.408Z,16.50
2023-05-05T18:19:25.128Z,16.50
2023-05-05T18:22:13.060Z,16.30
2023-05-05T18:25:02.136Z,16.20
2023-05-05T18:27:49.470Z,16.10
2023-05-05T18:30:37.690Z,16.00
2023-05-05T18:33:25.134Z,15.90
2023-05-05T18:36:12.836Z,15.80
2023-05-05T18:39:00.126Z,15.80
2023-05-05T18:41:49.214Z,15.70
2023-05-05T18:44:36.685Z,15.60
2023-05-05T18:47:24.191Z,15.50
2023-05-05T18:50:12.901Z,15.40
2023-05-05T18:53:00.548Z,15.30
2023-05-05T18:55:50.991Z,15.20
2023-05-05T18:58:40.088Z,15.10
2023-05-05T19:01:27.532Z,15.00
2023-05-05T19:04:29.540Z,14.90
2023-05-05T19:07:31.332Z,14.80
2023-05-05T19:10:22.139Z,14.70
2023-05-05T19:13:11.672Z,14.60
2023-05-05T19:16:00.737Z,14.50
2023-05-05T19:18:48.356Z,14.50
2023-05-05T19:21:35.930Z,14.40
2023-05-05T19:24:23.828Z,14.30
2023-05-05T19:27:16.461Z,14.20
2023-05-05T19:30:05.075Z,14.10
2023-05-05T19:32:53.953Z,14.00
2023-05-05T19:35:41.615Z,13.90
2023-05-05T19:38:29.292Z,13.90
2023-05-05T19:41:17.867Z,13.80
2023-05-05T19:44:05.976Z,13.70
2023-05-05T19:46:54.417Z,13.70
2023-05-05T19:49:43.165Z,13.60
2023-05-05T19:52:30.973Z,13.50
2023-05-05T19:55:18.433Z,13.40
2023-05-05T19:58:05.806Z,13.30
2023-05-05T20:00:53.550Z,13.20
2023-05-05T20:03:41.075Z,13.10
2023-05-05T20:06:30.557Z,13.00
2023-05-05T20:09:18.022Z,12.90
2023-05-05T20:12:06.537Z,12.90
2023-05-05T20:14:53.985Z,12.80
2023-05-05T20:17:41.509Z,12.70
2023-05-05T20:20:29.042Z,12.70
2023-05-05T20:23:18.070Z,12.70
2023-05-05T20:26:06.532Z,12.60
2023-05-05T20:28:54.129Z,12.50
2023-05-05T20:31:41.597Z,12.50
2023-05-05T20:34:29.173Z,12.40
2023-05-05T20:37:16.856Z,12.40
2023-05-05T20:40:06.241Z,12.40
2023-05-05T20:42:53.618Z,12.40
2023-05-05T20:45:41.255Z,12.30
2023-05-05T20:48:29.304Z,12.30
2023-05-05T20:51:17.019Z,12.20
2023-05-05T20:54:04.610Z,12.20
2023-05-05T20:56:58.136Z,12.20
2023-05-05T20:59:45.894Z,12.10
2023-05-05T21:02:33.430Z,12.10
2023-05-05T21:05:21.396Z,12.00
2023-05-05T21:08:09.130Z,12.00
2023-05-05T21:10:57.192Z,11.90
2023-05-05T21:13:46.255Z,11.90
2023-05-05T21:16:33.944Z,11.90
2023-05-05T21:19:21.296Z,11.80
2023-05-05T21:22:08.832Z,11.80
2023-05-05T21:24:56.465Z,11.70
2023-05-05T21:27:44.254Z,11.60
2023-05-05T21:30:33.044Z,11.60
2023-05-05T21:33:20.696Z,11.50
2023-05-05T21:36:09.058Z,11.50
2023-05-05T21:38:58.405Z,11.50
2023-05-05T21:41:47.486Z,11.50
2023-05-05T21:44:35.103Z,11.40
2023-05-05T21:47:24.199Z,11.40
2023-05-05T21:50:12.443Z,11.30
2023-05-05T21:53:00.336Z,11.40
2023-05-05T21:55:48.061Z,11.30
2023-05-05T21:58:35.674Z,11.30
2023-05-05T22:01:22.942Z,11.30
2023-05-05T22:04:11.729Z,11.30
2023-05-05T22:06:59.438Z,11.30
2023-05-05T22:09:47.126Z,11.20
2023-05-05T22:12:34.754Z,11.20
2023-05-05T22:15:25.372Z,11.20
2023-05-05T22:18:15.066Z,11.20
2023-05-05T22:21:04.780Z,11.20
2023-05-05T22:23:52.440Z,11.20
2023-05-05T22:26:43.149Z,11.10
2023-05-05T22:29:30.907Z,11.10
2023-05-05T22:32:18.394Z,11.10
2023-05-05T22:35:07.481Z,11.10
2023-05-05T22:37:57.109Z,11.10
2023-05-05T22:40:44.667Z,11.10
2023-05-05T22:43:32.251Z,11.10
2023-05-05T22:46:19.748Z,11.10
2023-05-05T22:49:07.377Z,11.00
2023-05-05T22:51:55.298Z,11.00
2023-05-05T22:54:44.104Z,11.00
2023-05-05T22:57:31.776Z,11.00
2023-05-05T23:00:19.622Z,10.90
2023-05-05T23:03:07.123Z,10.90
2023-05-05T23:05:54.857Z,10.90
2023-05-05T23:08:42.907Z,10.80
2023-05-05T23:11:31.646Z,10.80
2023-05-05T23:14:19.604Z,10.80
2023-05-05T23:17:08.281Z,10.80
2023-05-05T23:19:55.799Z,10.80
2023-05-05T23:22:43.474Z,10.70
2023-05-05T23:25:31.281Z,10.80
2023-05-05T23:28:20.283Z,10.70
2023-05-05T23:31:08.011Z,10.80
2023-05-05T23:33:55.740Z,10.70
2023-05-05T23:36:43.409Z,10.70
2023-05-05T23:39:31.360Z,10.80
2023-05-05T23:42:18.679Z,10.80
2023-05-05T23:45:09.037Z,10.80
2023-05-05T23:47:56.951Z,10.80
2023-05-05T23:50:44.405Z,10.80
2023-05-05T23:53:32.140Z,10.80
2023-05-05T23:56:19.550Z,10.80
2023-05-05T23:59:06.984Z,10.80
